sensor_id;sensor_type;location;lat;lon;timestamp;pressure;altitude;pressure_sealevel;temperature;humidity
37291;BME280;23175;-33.706;151.094;2022-10-16T00:00:04;100151.67;;;18.95;29.87
37291;BME280;23175;-33.706;151.094;2022-10-16T00:02:35;100142.88;;;17.99;31.62
37291;BME280;23175;-33.706;151.094;2022-10-16T00:05:05;100138.63;;;17.77;31.57
37291;BME280;23175;-33.706;151.094;2022-10-16T00:07:35;100133.60;;;17.49;32.63
37291;BME280;23175;-33.706;151.094;2022-10-16T00:10:05;100128.25;;;17.99;31.99
37291;BME280;23175;-33.706;151.094;2022-10-16T00:12:36;100126.64;;;19.79;31.39
37291;BME280;23175;-33.706;151.094;2022-10-16T00:15:07;100123.42;;;17.80;33.17
37291;BME280;23175;-33.706;151.094;2022-10-16T00:17:37;100125.78;;;19.96;30.71
37291;BME280;23175;-33.706;151.094;2022-10-16T00:20:08;100120.17;;;15.83;34.78
37291;BME280;23175;-33.706;151.094;2022-10-16T00:22:38;100117.48;;;19.33;31.02
37291;BME280;23175;-33.706;151.094;2022-10-16T00:25:09;100111.08;;;18.60;31.40
37291;BME280;23175;-33.706;151.094;2022-10-16T00:27:38;100109.33;;;19.28;32.00
37291;BME280;23175;-33.706;151.094;2022-10-16T00:30:09;100109.17;;;19.30;31.83
37291;BME280;23175;-33.706;151.094;2022-10-16T00:32:40;100100.14;;;17.94;33.71
37291;BME280;23175;-33.706;151.094;2022-10-16T00:35:10;100101.92;;;18.57;33.70
37291;BME280;23175;-33.706;151.094;2022-10-16T00:37:40;100103.34;;;18.42;33.37
37291;BME280;23175;-33.706;151.094;2022-10-16T00:40:10;100107.62;;;14.24;38.50
37291;BME280;23175;-33.706;151.094;2022-10-16T00:42:41;100108.42;;;16.00;38.54
37291;BME280;23175;-33.706;151.094;2022-10-16T00:45:12;100103.14;;;17.29;35.97
37291;BME280;23175;-33.706;151.094;2022-10-16T00:47:43;100095.30;;;18.05;35.56
37291;BME280;23175;-33.706;151.094;2022-10-16T00:50:18;100089.76;;;18.20;36.22
37291;BME280;23175;-33.706;151.094;2022-10-16T00:52:53;100098.87;;;15.73;38.20
37291;BME280;23175;-33.706;151.094;2022-10-16T00:55:24;100100.90;;;15.82;38.59
37291;BME280;23175;-33.706;151.094;2022-10-16T00:57:55;100094.95;;;19.58;34.84
37291;BME280;23175;-33.706;151.094;2022-10-16T01:00:27;100088.14;;;19.37;33.73
37291;BME280;23175;-33.706;151.094;2022-10-16T01:02:59;100088.77;;;19.21;33.55
37291;BME280;23175;-33.706;151.094;2022-10-16T01:05:33;100093.52;;;16.56;37.63
37291;BME280;23175;-33.706;151.094;2022-10-16T01:08:12;100091.24;;;17.69;35.63
37291;BME280;23175;-33.706;151.094;2022-10-16T01:10:48;100091.74;;;18.30;35.42
37291;BME280;23175;-33.706;151.094;2022-10-16T01:13:24;100084.56;;;18.19;35.71
37291;BME280;23175;-33.706;151.094;2022-10-16T01:15:59;100086.61;;;16.31;37.63
37291;BME280;23175;-33.706;151.094;2022-10-16T01:18:42;100081.32;;;18.38;34.74
37291;BME280;23175;-33.706;151.094;2022-10-16T01:21:16;100080.50;;;18.48;35.77
37291;BME280;23175;-33.706;151.094;2022-10-16T01:23:58;100078.55;;;19.27;34.96
37291;BME280;23175;-33.706;151.094;2022-10-16T01:26:44;100077.92;;;19.71;33.77
37291;BME280;23175;-33.706;151.094;2022-10-16T01:29:23;100073.92;;;20.21;34.23
37291;BME280;23175;-33.706;151.094;2022-10-16T01:31:59;100069.24;;;18.93;35.06
37291;BME280;23175;-33.706;151.094;2022-10-16T01:34:35;100069.46;;;19.62;33.51
37291;BME280;23175;-33.706;151.094;2022-10-16T01:37:12;100065.83;;;20.02;32.67
37291;BME280;23175;-33.706;151.094;2022-10-16T01:39:46;100065.33;;;18.62;33.68
37291;BME280;23175;-33.706;151.094;2022-10-16T01:42:19;100055.28;;;18.27;34.06
37291;BME280;23175;-33.706;151.094;2022-10-16T01:44:52;100049.79;;;19.34;34.19
37291;BME280;23175;-33.706;151.094;2022-10-16T01:47:25;100043.86;;;21.03;32.08
37291;BME280;23175;-33.706;151.094;2022-10-16T01:49:57;100046.60;;;18.88;34.82
37291;BME280;23175;-33.706;151.094;2022-10-16T01:52:30;100040.74;;;19.94;33.61
37291;BME280;23175;-33.706;151.094;2022-10-16T01:55:04;100042.74;;;18.95;34.01
37291;BME280;23175;-33.706;151.094;2022-10-16T01:57:38;100041.17;;;21.16;33.01
37291;BME280;23175;-33.706;151.094;2022-10-16T02:00:12;100041.87;;;16.23;38.61
37291;BME280;23175;-33.706;151.094;2022-10-16T02:02:46;100040.00;;;18.83;35.62
37291;BME280;23175;-33.706;151.094;2022-10-16T02:05:21;100032.72;;;18.45;35.58
37291;BME280;23175;-33.706;151.094;2022-10-16T02:07:53;100033.43;;;18.98;35.51
37291;BME280;23175;-33.706;151.094;2022-10-16T02:10:24;100032.04;;;19.20;35.86
37291;BME280;23175;-33.706;151.094;2022-10-16T02:12:59;100025.09;;;18.94;36.68
37291;BME280;23175;-33.706;151.094;2022-10-16T02:15:30;100023.82;;;17.56;37.88
37291;BME280;23175;-33.706;151.094;2022-10-16T02:18:00;100022.41;;;19.32;36.64
37291;BME280;23175;-33.706;151.094;2022-10-16T02:20:36;100024.42;;;18.64;38.20
37291;BME280;23175;-33.706;151.094;2022-10-16T02:23:15;100019.86;;;17.02;39.48
37291;BME280;23175;-33.706;151.094;2022-10-16T02:25:48;100014.86;;;17.03;40.19
37291;BME280;23175;-33.706;151.094;2022-10-16T02:28:25;100020.02;;;17.55;39.45
37291;BME280;23175;-33.706;151.094;2022-10-16T02:31:00;100023.12;;;19.08;38.03
37291;BME280;23175;-33.706;151.094;2022-10-16T02:33:31;100022.63;;;16.51;40.18
37291;BME280;23175;-33.706;151.094;2022-10-16T02:36:02;100019.46;;;17.76;38.34
37291;BME280;23175;-33.706;151.094;2022-10-16T02:38:32;100021.05;;;16.94;40.44
37291;BME280;23175;-33.706;151.094;2022-10-16T02:41:04;100017.86;;;17.47;38.71
37291;BME280;23175;-33.706;151.094;2022-10-16T02:43:34;100020.48;;;18.03;38.83
37291;BME280;23175;-33.706;151.094;2022-10-16T02:46:04;100019.43;;;17.04;40.04
37291;BME280;23175;-33.706;151.094;2022-10-16T02:48:34;100019.48;;;17.91;38.92
37291;BME280;23175;-33.706;151.094;2022-10-16T02:51:04;100006.82;;;15.92;39.19
37291;BME280;23175;-33.706;151.094;2022-10-16T02:53:34;100011.01;;;15.86;41.75
37291;BME280;23175;-33.706;151.094;2022-10-16T02:56:04;100000.97;;;15.04;40.83
37291;BME280;23175;-33.706;151.094;2022-10-16T02:58:34;100002.86;;;16.11;41.11
37291;BME280;23175;-33.706;151.094;2022-10-16T03:01:04;99994.63;;;15.83;39.84
37291;BME280;23175;-33.706;151.094;2022-10-16T03:03:34;99997.31;;;17.89;39.18
37291;BME280;23175;-33.706;151.094;2022-10-16T03:06:04;99990.50;;;17.29;37.93
37291;BME280;23175;-33.706;151.094;2022-10-16T03:08:34;99983.64;;;17.85;38.10
37291;BME280;23175;-33.706;151.094;2022-10-16T03:11:05;99982.46;;;17.72;37.57
37291;BME280;23175;-33.706;151.094;2022-10-16T03:13:34;99980.99;;;18.06;37.46
37291;BME280;23175;-33.706;151.094;2022-10-16T03:16:05;99974.37;;;15.52;39.06
37291;BME280;23175;-33.706;151.094;2022-10-16T03:18:35;99971.19;;;18.07;36.99
37291;BME280;23175;-33.706;151.094;2022-10-16T03:21:05;99961.83;;;17.87;36.06
37291;BME280;23175;-33.706;151.094;2022-10-16T03:23:35;99958.87;;;17.57;37.14
37291;BME280;23175;-33.706;151.094;2022-10-16T03:26:05;99959.95;;;17.86;37.53
37291;BME280;23175;-33.706;151.094;2022-10-16T03:28:35;99954.50;;;17.52;38.78
37291;BME280;23175;-33.706;151.094;2022-10-16T03:31:05;99949.50;;;16.97;38.04
37291;BME280;23175;-33.706;151.094;2022-10-16T03:33:37;99950.68;;;17.22;39.24
37291;BME280;23175;-33.706;151.094;2022-10-16T03:36:06;99950.97;;;16.80;38.81
37291;BME280;23175;-33.706;151.094;2022-10-16T03:38:36;99952.39;;;17.25;38.99
37291;BME280;23175;-33.706;151.094;2022-10-16T03:41:07;99956.29;;;17.20;39.08
37291;BME280;23175;-33.706;151.094;2022-10-16T03:43:36;99956.48;;;18.63;37.90
37291;BME280;23175;-33.706;151.094;2022-10-16T03:46:07;99954.24;;;16.89;39.00
37291;BME280;23175;-33.706;151.094;2022-10-16T03:48:37;99960.13;;;16.39;40.63
37291;BME280;23175;-33.706;151.094;2022-10-16T03:51:07;99957.46;;;16.25;40.57
37291;BME280;23175;-33.706;151.094;2022-10-16T03:53:37;99952.65;;;17.62;39.59
37291;BME280;23175;-33.706;151.094;2022-10-16T03:56:07;99955.12;;;16.40;40.67
37291;BME280;23175;-33.706;151.094;2022-10-16T03:58:37;99955.43;;;17.47;40.32
37291;BME280;23175;-33.706;151.094;2022-10-16T04:01:07;99950.84;;;16.36;39.65
37291;BME280;23175;-33.706;151.094;2022-10-16T04:03:37;99953.13;;;17.13;40.33
37291;BME280;23175;-33.706;151.094;2022-10-16T04:06:08;99950.72;;;18.29;38.16
37291;BME280;23175;-33.706;151.094;2022-10-16T04:08:38;99948.44;;;17.98;39.26
37291;BME280;23175;-33.706;151.094;2022-10-16T04:11:08;99947.05;;;17.69;38.65
37291;BME280;23175;-33.706;151.094;2022-10-16T04:13:38;99949.13;;;15.16;41.76
37291;BME280;23175;-33.706;151.094;2022-10-16T04:16:08;99943.57;;;15.47;41.49
37291;BME280;23175;-33.706;151.094;2022-10-16T04:18:38;99938.73;;;16.44;40.54
37291;BME280;23175;-33.706;151.094;2022-10-16T04:21:08;99940.04;;;15.77;41.95
37291;BME280;23175;-33.706;151.094;2022-10-16T04:23:38;99938.99;;;17.46;39.80
37291;BME280;23175;-33.706;151.094;2022-10-16T04:26:09;99933.90;;;17.17;39.47
37291;BME280;23175;-33.706;151.094;2022-10-16T04:28:39;99931.98;;;15.82;42.04
37291;BME280;23175;-33.706;151.094;2022-10-16T04:31:09;99932.24;;;14.32;43.56
37291;BME280;23175;-33.706;151.094;2022-10-16T04:33:41;99929.01;;;15.49;42.57
37291;BME280;23175;-33.706;151.094;2022-10-16T04:36:12;99921.28;;;17.65;39.17
37291;BME280;23175;-33.706;151.094;2022-10-16T04:38:42;99920.15;;;16.02;41.37
37291;BME280;23175;-33.706;151.094;2022-10-16T04:41:13;99920.07;;;16.11;41.73
37291;BME280;23175;-33.706;151.094;2022-10-16T04:43:43;99919.95;;;17.33;39.91
37291;BME280;23175;-33.706;151.094;2022-10-16T04:46:13;99915.23;;;16.60;41.12
37291;BME280;23175;-33.706;151.094;2022-10-16T04:48:43;99916.14;;;16.13;41.96
37291;BME280;23175;-33.706;151.094;2022-10-16T04:51:13;99915.46;;;15.72;42.51
37291;BME280;23175;-33.706;151.094;2022-10-16T04:53:43;99914.15;;;17.21;41.43
37291;BME280;23175;-33.706;151.094;2022-10-16T04:56:13;99917.89;;;17.08;41.57
37291;BME280;23175;-33.706;151.094;2022-10-16T04:58:43;99918.42;;;16.31;42.02
37291;BME280;23175;-33.706;151.094;2022-10-16T05:01:14;99922.54;;;15.88;42.82
37291;BME280;23175;-33.706;151.094;2022-10-16T05:03:44;99916.73;;;18.28;40.67
37291;BME280;23175;-33.706;151.094;2022-10-16T05:06:14;99917.62;;;16.92;41.55
37291;BME280;23175;-33.706;151.094;2022-10-16T05:08:44;99917.78;;;15.96;42.90
37291;BME280;23175;-33.706;151.094;2022-10-16T05:11:14;99916.94;;;16.32;42.41
37291;BME280;23175;-33.706;151.094;2022-10-16T05:13:44;99925.57;;;17.05;41.72
37291;BME280;23175;-33.706;151.094;2022-10-16T05:16:15;99925.94;;;15.71;43.47
37291;BME280;23175;-33.706;151.094;2022-10-16T05:18:45;99924.63;;;15.60;43.48
37291;BME280;23175;-33.706;151.094;2022-10-16T05:21:15;99921.06;;;16.87;41.84
37291;BME280;23175;-33.706;151.094;2022-10-16T05:23:45;99922.22;;;18.35;39.74
37291;BME280;23175;-33.706;151.094;2022-10-16T05:26:15;99925.40;;;15.96;42.66
37291;BME280;23175;-33.706;151.094;2022-10-16T05:28:45;99928.84;;;17.35;41.24
37291;BME280;23175;-33.706;151.094;2022-10-16T05:31:15;99928.47;;;17.04;42.06
37291;BME280;23175;-33.706;151.094;2022-10-16T05:33:46;99933.25;;;15.34;43.75
37291;BME280;23175;-33.706;151.094;2022-10-16T05:36:16;99927.85;;;16.21;42.57
37291;BME280;23175;-33.706;151.094;2022-10-16T05:38:46;99924.67;;;16.52;42.22
37291;BME280;23175;-33.706;151.094;2022-10-16T05:41:20;99928.13;;;15.82;43.40
37291;BME280;23175;-33.706;151.094;2022-10-16T05:43:50;99931.09;;;15.69;43.40
37291;BME280;23175;-33.706;151.094;2022-10-16T05:46:21;99934.41;;;17.09;41.62
37291;BME280;23175;-33.706;151.094;2022-10-16T05:48:52;99939.33;;;15.17;44.41
37291;BME280;23175;-33.706;151.094;2022-10-16T05:51:22;99944.48;;;15.03;44.35
37291;BME280;23175;-33.706;151.094;2022-10-16T05:53:53;99951.05;;;17.06;41.48
37291;BME280;23175;-33.706;151.094;2022-10-16T05:56:23;99959.45;;;15.23;44.77
37291;BME280;23175;-33.706;151.094;2022-10-16T05:58:54;99955.77;;;15.48;45.79
37291;BME280;23175;-33.706;151.094;2022-10-16T06:01:24;99963.71;;;15.90;44.83
37291;BME280;23175;-33.706;151.094;2022-10-16T06:03:54;99969.22;;;15.67;44.78
37291;BME280;23175;-33.706;151.094;2022-10-16T06:06:26;99964.61;;;16.87;42.73
37291;BME280;23175;-33.706;151.094;2022-10-16T06:08:58;99970.47;;;16.83;43.19
37291;BME280;23175;-33.706;151.094;2022-10-16T06:11:31;99975.92;;;14.74;45.88
37291;BME280;23175;-33.706;151.094;2022-10-16T06:14:01;99979.77;;;14.23;46.34
37291;BME280;23175;-33.706;151.094;2022-10-16T06:16:32;99977.34;;;15.59;45.56
37291;BME280;23175;-33.706;151.094;2022-10-16T06:19:03;99986.69;;;15.19;45.48
37291;BME280;23175;-33.706;151.094;2022-10-16T06:21:34;99990.09;;;17.52;42.53
37291;BME280;23175;-33.706;151.094;2022-10-16T06:24:04;99999.24;;;13.95;46.08
37291;BME280;23175;-33.706;151.094;2022-10-16T06:26:34;100002.35;;;16.08;44.44
37291;BME280;23175;-33.706;151.094;2022-10-16T06:29:04;100004.22;;;15.83;43.57
37291;BME280;23175;-33.706;151.094;2022-10-16T06:31:34;100007.02;;;16.75;43.70
37291;BME280;23175;-33.706;151.094;2022-10-16T06:34:06;100010.77;;;17.19;41.28
37291;BME280;23175;-33.706;151.094;2022-10-16T06:36:36;100017.31;;;16.91;43.40
37291;BME280;23175;-33.706;151.094;2022-10-16T06:39:06;100019.78;;;16.64;43.07
37291;BME280;23175;-33.706;151.094;2022-10-16T06:41:36;100026.47;;;16.94;43.75
37291;BME280;23175;-33.706;151.094;2022-10-16T06:44:07;100024.15;;;17.36;42.28
37291;BME280;23175;-33.706;151.094;2022-10-16T06:46:37;100024.37;;;17.91;42.33
37291;BME280;23175;-33.706;151.094;2022-10-16T06:49:08;100025.38;;;17.38;41.90
37291;BME280;23175;-33.706;151.094;2022-10-16T06:51:38;100029.54;;;17.59;42.28
37291;BME280;23175;-33.706;151.094;2022-10-16T06:54:08;100027.89;;;15.14;44.94
37291;BME280;23175;-33.706;151.094;2022-10-16T06:56:38;100030.64;;;16.50;44.05
37291;BME280;23175;-33.706;151.094;2022-10-16T06:59:08;100030.60;;;17.56;42.44
37291;BME280;23175;-33.706;151.094;2022-10-16T07:01:38;100029.26;;;17.96;41.67
37291;BME280;23175;-33.706;151.094;2022-10-16T07:04:09;100036.32;;;16.22;42.81
37291;BME280;23175;-33.706;151.094;2022-10-16T07:06:39;100042.61;;;15.64;45.24
37291;BME280;23175;-33.706;151.094;2022-10-16T07:09:10;100041.52;;;15.98;43.19
37291;BME280;23175;-33.706;151.094;2022-10-16T07:11:42;100038.91;;;17.93;41.21
37291;BME280;23175;-33.706;151.094;2022-10-16T07:14:17;100049.83;;;16.59;42.99
37291;BME280;23175;-33.706;151.094;2022-10-16T07:16:48;100047.48;;;17.86;41.24
37291;BME280;23175;-33.706;151.094;2022-10-16T07:19:18;100050.15;;;15.70;43.61
37291;BME280;23175;-33.706;151.094;2022-10-16T07:21:48;100051.87;;;16.57;43.41
37291;BME280;23175;-33.706;151.094;2022-10-16T07:24:19;100052.49;;;16.97;42.55
37291;BME280;23175;-33.706;151.094;2022-10-16T07:26:49;100049.60;;;17.19;42.67
37291;BME280;23175;-33.706;151.094;2022-10-16T07:29:20;100053.12;;;15.64;44.41
37291;BME280;23175;-33.706;151.094;2022-10-16T07:31:51;100050.51;;;17.46;42.09
37291;BME280;23175;-33.706;151.094;2022-10-16T07:34:21;100051.44;;;15.82;44.56
37291;BME280;23175;-33.706;151.094;2022-10-16T07:36:51;100056.28;;;17.59;42.49
37291;BME280;23175;-33.706;151.094;2022-10-16T07:39:22;100060.55;;;16.44;43.55
37291;BME280;23175;-33.706;151.094;2022-10-16T07:41:52;100069.67;;;15.89;44.22
37291;BME280;23175;-33.706;151.094;2022-10-16T07:44:22;100072.97;;;14.98;44.80
37291;BME280;23175;-33.706;151.094;2022-10-16T07:46:52;100074.47;;;15.99;43.43
37291;BME280;23175;-33.706;151.094;2022-10-16T07:49:22;100076.58;;;16.37;43.17
37291;BME280;23175;-33.706;151.094;2022-10-16T07:51:52;100077.89;;;16.48;43.63
37291;BME280;23175;-33.706;151.094;2022-10-16T07:54:23;100080.83;;;17.22;41.60
37291;BME280;23175;-33.706;151.094;2022-10-16T07:56:54;100076.71;;;18.67;39.96
37291;BME280;23175;-33.706;151.094;2022-10-16T07:59:23;100080.57;;;17.20;41.83
37291;BME280;23175;-33.706;151.094;2022-10-16T08:01:54;100082.51;;;17.74;41.58
37291;BME280;23175;-33.706;151.094;2022-10-16T08:04:24;100088.32;;;16.30;43.62
37291;BME280;23175;-33.706;151.094;2022-10-16T08:06:54;100087.61;;;14.84;44.62
37291;BME280;23175;-33.706;151.094;2022-10-16T08:09:24;100084.78;;;16.54;42.27
37291;BME280;23175;-33.706;151.094;2022-10-16T08:11:55;100086.33;;;16.31;43.32
37291;BME280;23175;-33.706;151.094;2022-10-16T08:14:24;100086.78;;;15.45;43.87
37291;BME280;23175;-33.706;151.094;2022-10-16T08:16:55;100086.72;;;16.77;42.54
37291;BME280;23175;-33.706;151.094;2022-10-16T08:19:25;100095.55;;;14.92;45.01
37291;BME280;23175;-33.706;151.094;2022-10-16T08:21:55;100102.95;;;14.69;46.01
37291;BME280;23175;-33.706;151.094;2022-10-16T08:24:25;100099.21;;;16.73;41.98
37291;BME280;23175;-33.706;151.094;2022-10-16T08:26:56;100102.42;;;16.72;43.14
37291;BME280;23175;-33.706;151.094;2022-10-16T08:29:25;100103.96;;;18.16;40.24
37291;BME280;23175;-33.706;151.094;2022-10-16T08:31:56;100113.78;;;14.89;45.42
37291;BME280;23175;-33.706;151.094;2022-10-16T08:34:26;100112.38;;;17.64;41.37
37291;BME280;23175;-33.706;151.094;2022-10-16T08:36:56;100115.26;;;16.81;42.89
37291;BME280;23175;-33.706;151.094;2022-10-16T08:39:26;100114.20;;;15.85;43.63
37291;BME280;23175;-33.706;151.094;2022-10-16T08:42:06;100117.48;;;17.76;41.19
37291;BME280;23175;-33.706;151.094;2022-10-16T08:44:51;100116.01;;;17.91;41.11
37291;BME280;23175;-33.706;151.094;2022-10-16T08:47:30;100126.67;;;15.44;44.91
37291;BME280;23175;-33.706;151.094;2022-10-16T08:50:07;100137.61;;;15.09;44.30
37291;BME280;23175;-33.706;151.094;2022-10-16T08:52:41;100138.15;;;17.46;42.17
37291;BME280;23175;-33.706;151.094;2022-10-16T08:55:29;100150.28;;;16.04;43.14
37291;BME280;23175;-33.706;151.094;2022-10-16T08:57:59;100152.51;;;17.00;41.65
37291;BME280;23175;-33.706;151.094;2022-10-16T09:00:30;100158.15;;;18.06;40.91
37291;BME280;23175;-33.706;151.094;2022-10-16T09:03:07;100163.77;;;16.25;42.57
37291;BME280;23175;-33.706;151.094;2022-10-16T09:06:35;100163.90;;;18.07;40.06
37291;BME280;23175;-33.706;151.094;2022-10-16T09:09:18;100167.64;;;16.04;42.45
37291;BME280;23175;-33.706;151.094;2022-10-16T09:11:56;100173.11;;;16.70;42.99
37291;BME280;23175;-33.706;151.094;2022-10-16T09:14:42;100171.54;;;16.85;41.52
37291;BME280;23175;-33.706;151.094;2022-10-16T09:17:26;100177.88;;;17.55;40.83
37291;BME280;23175;-33.706;151.094;2022-10-16T09:20:12;100184.37;;;15.51;43.63
37291;BME280;23175;-33.706;151.094;2022-10-16T09:22:43;100187.64;;;14.81;44.64
37291;BME280;23175;-33.706;151.094;2022-10-16T09:25:15;100188.94;;;15.73;43.24
37291;BME280;23175;-33.706;151.094;2022-10-16T09:27:48;100189.66;;;17.05;41.74
37291;BME280;23175;-33.706;151.094;2022-10-16T09:30:23;100192.37;;;16.41;42.49
37291;BME280;23175;-33.706;151.094;2022-10-16T09:32:58;100188.58;;;18.81;38.94
37291;BME280;23175;-33.706;151.094;2022-10-16T09:35:33;100192.38;;;16.27;42.20
37291;BME280;23175;-33.706;151.094;2022-10-16T09:38:05;100194.79;;;17.42;40.00
37291;BME280;23175;-33.706;151.094;2022-10-16T09:40:38;100197.06;;;16.36;42.47
37291;BME280;23175;-33.706;151.094;2022-10-16T09:43:20;100202.55;;;14.79;44.18
37291;BME280;23175;-33.706;151.094;2022-10-16T09:46:01;100206.59;;;14.40;44.67
37291;BME280;23175;-33.706;151.094;2022-10-16T09:48:37;100208.68;;;16.67;41.40
37291;BME280;23175;-33.706;151.094;2022-10-16T09:51:19;100207.40;;;15.50;42.88
37291;BME280;23175;-33.706;151.094;2022-10-16T09:53:53;100202.95;;;17.95;40.08
37291;BME280;23175;-33.706;151.094;2022-10-16T09:56:26;100205.37;;;15.20;42.78
37291;BME280;23175;-33.706;151.094;2022-10-16T09:58:58;100197.17;;;18.17;39.07
37291;BME280;23175;-33.706;151.094;2022-10-16T10:01:31;100200.01;;;15.16;43.05
37291;BME280;23175;-33.706;151.094;2022-10-16T10:04:06;100199.61;;;15.24;42.88
37291;BME280;23175;-33.706;151.094;2022-10-16T10:06:40;100199.27;;;16.68;41.75
37291;BME280;23175;-33.706;151.094;2022-10-16T10:09:20;100201.79;;;16.85;40.41
37291;BME280;23175;-33.706;151.094;2022-10-16T10:11:53;100203.01;;;17.90;39.09
37291;BME280;23175;-33.706;151.094;2022-10-16T10:14:30;100213.34;;;16.76;40.97
37291;BME280;23175;-33.706;151.094;2022-10-16T10:17:18;100217.94;;;18.24;39.28
37291;BME280;23175;-33.706;151.094;2022-10-16T10:19:51;100226.93;;;15.11;43.32
37291;BME280;23175;-33.706;151.094;2022-10-16T10:22:28;100227.13;;;16.56;41.21
37291;BME280;23175;-33.706;151.094;2022-10-16T10:25:14;100224.85;;;18.20;38.77
37291;BME280;23175;-33.706;151.094;2022-10-16T10:28:03;100226.02;;;16.71;41.29
37291;BME280;23175;-33.706;151.094;2022-10-16T10:30:41;100231.29;;;15.60;42.14
37291;BME280;23175;-33.706;151.094;2022-10-16T10:33:25;100232.99;;;15.35;42.29
37291;BME280;23175;-33.706;151.094;2022-10-16T10:36:07;100230.97;;;17.86;39.20
37291;BME280;23175;-33.706;151.094;2022-10-16T10:38:46;100231.48;;;15.09;42.26
37291;BME280;23175;-33.706;151.094;2022-10-16T10:42:32;100230.89;;;18.11;38.98
37291;BME280;23175;-33.706;151.094;2022-10-16T10:45:20;100230.37;;;17.34;39.38
37291;BME280;23175;-33.706;151.094;2022-10-16T10:48:03;100237.85;;;16.07;42.42
37291;BME280;23175;-33.706;151.094;2022-10-16T10:50:43;100237.38;;;15.62;43.38
37291;BME280;23175;-33.706;151.094;2022-10-16T10:53:24;100230.80;;;17.41;41.73
37291;BME280;23175;-33.706;151.094;2022-10-16T10:56:10;100230.86;;;17.98;41.19
37291;BME280;23175;-33.706;151.094;2022-10-16T10:59:00;100234.33;;;17.46;42.16
37291;BME280;23175;-33.706;151.094;2022-10-16T11:01:39;100238.59;;;16.01;45.11
37291;BME280;23175;-33.706;151.094;2022-10-16T11:04:27;100237.16;;;15.70;45.92
37291;BME280;23175;-33.706;151.094;2022-10-16T11:07:03;100233.82;;;14.52;46.89
37291;BME280;23175;-33.706;151.094;2022-10-16T11:09:36;100229.93;;;18.17;42.58
37291;BME280;23175;-33.706;151.094;2022-10-16T11:12:11;100235.93;;;16.02;44.76
37291;BME280;23175;-33.706;151.094;2022-10-16T11:14:50;100238.07;;;16.85;43.73
37291;BME280;23175;-33.706;151.094;2022-10-16T11:17:29;100237.34;;;16.61;44.29
37291;BME280;23175;-33.706;151.094;2022-10-16T11:20:05;100235.40;;;16.73;43.82
37291;BME280;23175;-33.706;151.094;2022-10-16T11:22:44;100235.09;;;16.69;44.07
37291;BME280;23175;-33.706;151.094;2022-10-16T11:25:19;100237.36;;;17.48;42.92
37291;BME280;23175;-33.706;151.094;2022-10-16T11:27:54;100237.06;;;14.58;48.13
37291;BME280;23175;-33.706;151.094;2022-10-16T11:30:28;100238.37;;;16.93;43.84
37291;BME280;23175;-33.706;151.094;2022-10-16T11:33:10;100235.14;;;14.61;47.50
37291;BME280;23175;-33.706;151.094;2022-10-16T11:35:47;100242.32;;;15.90;45.49
37291;BME280;23175;-33.706;151.094;2022-10-16T11:38:29;100237.96;;;16.30;44.97
37291;BME280;23175;-33.706;151.094;2022-10-16T11:41:02;100239.44;;;15.22;46.47
37291;BME280;23175;-33.706;151.094;2022-10-16T11:43:35;100242.90;;;16.91;44.66
37291;BME280;23175;-33.706;151.094;2022-10-16T11:46:12;100246.29;;;17.17;43.71
37291;BME280;23175;-33.706;151.094;2022-10-16T11:48:48;100245.56;;;17.82;42.74
37291;BME280;23175;-33.706;151.094;2022-10-16T11:51:24;100250.25;;;17.37;43.83
37291;BME280;23175;-33.706;151.094;2022-10-16T11:54:02;100248.09;;;18.05;43.38
37291;BME280;23175;-33.706;151.094;2022-10-16T11:56:38;100251.60;;;16.75;44.83
37291;BME280;23175;-33.706;151.094;2022-10-16T11:59:17;100253.78;;;15.72;46.82
37291;BME280;23175;-33.706;151.094;2022-10-16T12:01:54;100252.88;;;15.41;48.39
37291;BME280;23175;-33.706;151.094;2022-10-16T12:04:30;100251.17;;;16.41;45.90
37291;BME280;23175;-33.706;151.094;2022-10-16T12:07:06;100247.96;;;16.72;45.74
37291;BME280;23175;-33.706;151.094;2022-10-16T12:09:40;100244.44;;;15.52;48.43
37291;BME280;23175;-33.706;151.094;2022-10-16T12:12:26;100241.10;;;14.05;50.20
37291;BME280;23175;-33.706;151.094;2022-10-16T12:15:21;100237.64;;;13.45;51.10
37291;BME280;23175;-33.706;151.094;2022-10-16T12:17:51;100241.00;;;15.94;48.29
37291;BME280;23175;-33.706;151.094;2022-10-16T12:20:25;100243.27;;;15.74;48.09
37291;BME280;23175;-33.706;151.094;2022-10-16T12:22:59;100243.23;;;15.23;49.82
37291;BME280;23175;-33.706;151.094;2022-10-16T12:25:32;100244.56;;;17.54;45.06
37291;BME280;23175;-33.706;151.094;2022-10-16T12:28:04;100241.72;;;16.31;46.62
37291;BME280;23175;-33.706;151.094;2022-10-16T12:30:36;100239.94;;;14.39;49.79
37291;BME280;23175;-33.706;151.094;2022-10-16T12:33:18;100236.97;;;15.04;49.07
37291;BME280;23175;-33.706;151.094;2022-10-16T12:35:49;100241.33;;;17.79;45.30
37291;BME280;23175;-33.706;151.094;2022-10-16T12:38:21;100239.46;;;15.61;47.93
37291;BME280;23175;-33.706;151.094;2022-10-16T12:40:59;100234.44;;;13.83;51.18
37291;BME280;23175;-33.706;151.094;2022-10-16T12:43:39;100238.47;;;14.95;48.80
37291;BME280;23175;-33.706;151.094;2022-10-16T12:46:38;100239.44;;;16.41;46.30
37291;BME280;23175;-33.706;151.094;2022-10-16T12:49:22;100236.86;;;14.23;49.40
37291;BME280;23175;-33.706;151.094;2022-10-16T12:51:59;100233.43;;;17.05;45.69
37291;BME280;23175;-33.706;151.094;2022-10-16T12:54:31;100229.50;;;17.21;45.10